Time;durP1;ratioP1;P1;durP2;ratioP2;P2;SDS_P1;SDS_P2;PMS_P1;PMS_P2;Temp;Humidity;BMP_temperature;BMP_pressure;BME280_temperature;BME280_humidity;BME280_pressure;Samples;Min_cycle;Max_cycle;Signal;HPM_P1;HPM_P2
2022/03/15 00:01:46;;;;;;;30.80;20.13;;;;;;;7.44;100.00;102027.75;4959123;28;20113;-82
2022/03/15 00:04:12;;;;;;;29.90;18.20;;;;;;;7.42;100.00;102029.50;4960907;28;20050;-81
2022/03/15 00:06:39;;;;;;;30.67;18.80;;;;;;;7.50;100.00;102021.72;4941994;28;20528;-81
2022/03/15 00:09:06;;;;;;;29.20;18.87;;;;;;;7.45;100.00;102021.63;4965350;28;20042;-82
2022/03/15 00:11:34;;;;;;;32.63;19.30;;;;;;;7.48;100.00;102026.03;4980530;28;20061;-81
2022/03/15 00:14:04;;;;;;;31.23;19.53;;;;;;;7.42;100.00;102028.59;4964605;28;20050;-81
2022/03/15 00:16:30;;;;;;;30.83;18.33;;;;;;;7.41;100.00;102025.09;4963924;28;20050;-82
2022/03/15 00:19:01;;;;;;;32.73;19.23;;;;;;;7.46;100.00;102033.03;4954608;28;20104;-82
2022/03/15 00:21:28;;;;;;;33.13;19.20;;;;;;;7.51;100.00;102034.88;4973555;28;20039;-81
2022/03/15 00:23:55;;;;;;;32.20;19.57;;;;;;;7.48;100.00;102026.97;4963345;28;20105;-82
2022/03/15 00:26:22;;;;;;;33.27;19.93;;;;;;;7.42;100.00;102036.50;4963356;28;20046;-81
2022/03/15 00:28:49;;;;;;;32.27;19.90;;;;;;;7.41;100.00;102037.34;4995107;28;20073;-81
2022/03/15 00:31:17;;;;;;;30.53;18.90;;;;;;;7.33;100.00;102030.25;4974789;28;20046;-82
2022/03/15 00:33:45;;;;;;;30.57;17.53;;;;;;;7.39;100.00;102041.69;4982682;28;20046;-83
2022/03/15 00:36:12;;;;;;;29.40;19.07;;;;;;;7.42;100.00;102039.13;4966697;28;20074;-83
2022/03/15 00:38:41;;;;;;;32.47;19.73;;;;;;;7.39;100.00;102044.31;4996271;28;20046;-83
2022/03/15 00:41:09;;;;;;;32.17;19.60;;;;;;;7.46;100.00;102049.69;4950377;28;20100;-82
2022/03/15 00:43:39;;;;;;;32.83;18.80;;;;;;;7.41;100.00;102050.50;4970065;28;20077;-82
2022/03/15 00:46:05;;;;;;;32.63;19.73;;;;;;;7.39;100.00;102052.19;4969230;28;20050;-83
2022/03/15 00:48:35;;;;;;;34.57;20.80;;;;;;;7.47;100.00;102050.56;4966819;28;20422;-83
2022/03/15 00:51:05;;;;;;;35.07;20.03;;;;;;;7.47;100.00;102053.19;4964823;28;20126;-82
2022/03/15 00:53:32;;;;;;;34.27;19.17;;;;;;;7.47;100.00;102051.44;4966026;28;20043;-82
2022/03/15 00:55:59;;;;;;;35.23;19.83;;;;;;;7.43;100.00;102051.41;4950180;28;20485;-83
2022/03/15 00:58:29;;;;;;;34.83;20.60;;;;;;;7.41;100.00;102043.50;4948267;28;20058;-83
2022/03/15 01:00:55;;;;;;;35.23;20.20;;;;;;;7.37;100.00;102046.03;4952447;28;20277;-83
2022/03/15 01:03:22;;;;;;;34.13;20.53;;;;;;;7.38;100.00;102048.69;4967193;28;20042;-82
2022/03/15 01:05:51;;;;;;;39.90;21.87;;;;;;;7.42;100.00;102042.63;4968017;28;20106;-83
2022/03/15 01:08:21;;;;;;;32.63;18.50;;;;;;;7.46;100.00;102049.69;4966480;28;20046;-82
2022/03/15 01:10:53;;;;;;;34.03;20.17;;;;;;;7.39;100.00;102044.31;4981426;28;20038;-82
2022/03/15 01:13:22;;;;;;;36.17;20.77;;;;;;;7.45;100.00;102045.28;4932385;28;20134;-81
2022/03/15 01:15:50;;;;;;;32.03;19.30;;;;;;;7.49;100.00;102040.97;4972895;28;20049;-80
2022/03/15 01:18:26;;;;;;;32.33;17.97;;;;;;;7.50;100.00;102038.38;4964023;28;20046;-82
2022/03/15 01:21:00;;;;;;;41.33;20.33;;;;;;;7.53;100.00;102034.88;4981568;28;20050;-83
2022/03/15 01:23:28;;;;;;;31.73;18.57;;;;;;;7.42;100.00;102039.13;4948275;28;20051;-83
2022/03/15 01:25:55;;;;;;;30.57;18.60;;;;;;;7.41;100.00;102037.34;4961304;28;20842;-82
2022/03/15 01:28:25;;;;;;;32.03;19.03;;;;;;;7.43;100.00;102043.50;4956953;28;20047;-82
2022/03/15 01:30:52;;;;;;;30.80;18.57;;;;;;;7.46;100.00;102035.66;4960577;28;20042;-83
2022/03/15 01:33:21;;;;;;;31.13;17.83;;;;;;;7.42;100.00;102044.38;4975039;28;20040;-83
2022/03/15 01:35:53;;;;;;;32.33;17.93;;;;;;;7.51;100.00;102039.25;4963100;28;20054;-81
2022/03/15 01:38:21;;;;;;;33.37;18.87;;;;;;;7.41;100.00;102042.63;4979118;28;20053;-82
2022/03/15 01:40:48;;;;;;;30.20;17.33;;;;;;;7.43;100.00;102051.41;4955678;28;20498;-81
2022/03/15 01:43:14;;;;;;;31.40;18.00;;;;;;;7.39;100.00;102053.09;4975219;28;20736;-81
2022/03/15 01:45:42;;;;;;;32.40;19.10;;;;;;;7.40;100.00;102061.84;4956975;28;20046;-82
2022/03/15 01:48:09;;;;;;;28.03;17.97;;;;;;;7.36;100.00;102057.44;4976605;28;20112;-80
2022/03/15 01:50:39;;;;;;;30.83;17.43;;;;;;;7.41;100.00;102053.13;4962094;28;20055;-82
2022/03/15 01:53:06;;;;;;;30.43;18.23;;;;;;;7.40;100.00;102061.84;4962309;28;20039;-82
2022/03/15 01:55:34;;;;;;;29.13;17.40;;;;;;;7.40;100.00;102057.50;4978474;28;20050;-82
2022/03/15 01:58:04;;;;;;;36.07;18.73;;;;;;;7.37;100.00;102064.44;4964092;28;20042;-81
2022/03/15 02:00:34;;;;;;;34.57;18.87;;;;;;;7.42;100.00;102052.28;4946849;28;20050;-82
2022/03/15 02:03:02;;;;;;;31.40;17.83;;;;;;;7.37;100.00;102057.44;4978605;28;20405;-82
2022/03/15 02:05:32;;;;;;;29.60;16.43;;;;;;;7.41;100.00;102042.63;4961631;28;20069;-82
2022/03/15 02:08:12;;;;;;;28.37;16.23;;;;;;;7.44;100.00;102048.78;4946197;28;20101;-81
2022/03/15 02:10:40;;;;;;;30.20;17.20;;;;;;;7.44;100.00;102045.28;4960457;28;20046;-81
2022/03/15 02:13:10;;;;;;;31.93;16.47;;;;;;;7.42;100.00;102052.28;4956613;28;20046;-81
2022/03/15 02:15:38;;;;;;;29.23;16.10;;;;;;;7.34;100.00;102055.66;4966271;28;20074;-82
2022/03/15 02:18:05;;;;;;;26.87;16.23;;;;;;;7.39;100.00;102058.34;4960336;28;20058;-81
2022/03/15 02:20:34;;;;;;;27.77;16.73;;;;;;;7.37;100.00;102053.94;4944864;28;20068;-81
2022/03/15 02:23:00;;;;;;;31.50;16.70;;;;;;;7.39;100.00;102055.72;4958655;28;20046;-82
2022/03/15 02:25:28;;;;;;;32.63;17.23;;;;;;;7.33;100.00;102051.28;4976573;28;20038;-81
2022/03/15 02:27:55;;;;;;;30.33;19.13;;;;;;;7.26;100.00;102053.78;4942109;28;20119;-81
2022/03/15 02:30:22;;;;;;;27.07;15.77;;;;;;;7.26;100.00;102053.78;4942171;28;20050;-82
2022/03/15 02:32:54;;;;;;;29.70;16.37;;;;;;;7.22;100.00;102057.22;4956493;28;20054;-81
2022/03/15 02:35:23;;;;;;;25.73;15.93;;;;;;;7.25;100.00;102058.16;4988967;28;20138;-81
2022/03/15 02:37:52;;;;;;;26.90;16.17;;;;;;;7.36;100.00;102057.44;4977197;28;20055;-81
2022/03/15 02:40:21;;;;;;;25.87;14.30;;;;;;;7.26;100.00;102059.91;4977524;28;20499;-81
2022/03/15 02:42:48;;;;;;;26.03;14.53;;;;;;;7.27;100.00;102068.69;4946209;28;20047;-81
2022/03/15 02:45:15;;;;;;;24.30;14.83;;;;;;;7.23;100.00;102058.97;4968112;28;20055;-81
2022/03/15 02:47:43;;;;;;;26.53;15.37;;;;;;;7.20;100.00;102065.06;4975677;28;20049;-82
2022/03/15 02:50:10;;;;;;;29.73;15.93;;;;;;;7.29;100.00;102069.59;4961399;28;20421;-82
2022/03/15 02:52:43;;;;;;;24.53;14.27;;;;;;;7.25;100.00;102076.56;4976792;28;20273;-82
2022/03/15 02:55:10;;;;;;;24.30;14.50;;;;;;;7.26;100.00;102073.06;4951074;28;20051;-81
2022/03/15 02:57:40;;;;;;;23.53;14.63;;;;;;;7.24;100.00;102073.91;4977289;28;20053;-82
2022/03/15 03:00:14;;;;;;;27.77;15.03;;;;;;;7.29;100.00;102073.09;4962036;28;20068;-82
2022/03/15 03:02:44;;;;;;;27.17;14.53;;;;;;;7.21;100.00;102079.97;4973936;28;20413;-81
2022/03/15 03:05:13;;;;;;;21.73;14.60;;;;;;;7.16;100.00;102086.03;4977143;28;20046;-81
2022/03/15 03:07:40;;;;;;;25.30;13.90;;;;;;;7.24;100.00;102087.94;4945463;28;20136;-81
2022/03/15 03:10:12;;;;;;;25.50;14.23;;;;;;;7.17;100.00;102090.44;4961267;28;20505;-81
2022/03/15 03:12:43;;;;;;;24.27;14.13;;;;;;;7.20;100.00;102087.84;4960270;28;20394;-81
2022/03/15 03:15:12;;;;;;;25.60;14.93;;;;;;;7.15;100.00;102077.28;4957262;28;20043;-82
2022/03/15 03:17:41;;;;;;;23.33;13.60;;;;;;;7.15;100.00;102087.78;4967872;28;20493;-81
2022/03/15 03:20:09;;;;;;;19.93;13.00;;;;;;;7.18;100.00;102087.81;4959999;28;20042;-82
2022/03/15 03:22:36;;;;;;;23.20;13.07;;;;;;;7.32;100.00;102086.31;4958747;28;20096;-81
2022/03/15 03:25:04;;;;;;;21.50;13.50;;;;;;;7.25;100.00;102091.44;4978525;28;20498;-81
2022/03/15 03:27:32;;;;;;;21.70;12.43;;;;;;;7.19;100.00;102099.22;4939187;28;20046;-82
2022/03/15 03:29:59;;;;;;;17.83;11.37;;;;;;;7.14;100.00;102101.75;4943851;28;20043;-81
2022/03/15 03:32:26;;;;;;;21.63;12.50;;;;;;;7.13;100.00;102102.63;4943258;28;20110;-81
2022/03/15 03:34:56;;;;;;;21.23;12.30;;;;;;;7.18;100.00;102106.22;4957850;28;20037;-81
2022/03/15 03:37:25;;;;;;;19.50;11.17;;;;;;;7.14;100.00;102104.38;4994310;28;20046;-82
2022/03/15 03:39:52;;;;;;;20.57;11.20;;;;;;;7.17;100.00;102101.84;4961531;28;20050;-81
2022/03/15 03:42:26;;;;;;;19.95;12.20;;;;;;;7.10;100.00;102097.31;4960916;28;20141;-81
2022/03/15 03:44:52;;;;;;;22.30;12.10;;;;;;;7.10;100.00;102094.69;4976453;28;20034;-83
2022/03/15 03:47:19;;;;;;;19.10;11.73;;;;;;;7.14;100.00;102096.50;4965635;28;20046;-82
2022/03/15 03:49:46;;;;;;;23.33;11.70;;;;;;;7.13;100.00;102096.50;4981417;28;20049;-81
2022/03/15 03:52:13;;;;;;;18.63;10.97;;;;;;;7.10;100.00;102097.31;4945587;28;20038;-82
2022/03/15 03:54:40;;;;;;;19.70;11.33;;;;;;;7.22;100.00;102105.41;4985414;28;20937;-82
2022/03/15 03:57:06;;;;;;;20.57;11.10;;;;;;;7.15;100.00;102108.81;4986277;28;20040;-82
2022/03/15 03:59:34;;;;;;;16.83;10.43;;;;;;;7.21;100.00;102108.91;4959346;28;20050;-83
2022/03/15 04:02:01;;;;;;;16.23;9.70;;;;;;;7.21;100.00;102114.16;4979584;28;20046;-83
2022/03/15 04:04:28;;;;;;;18.40;11.07;;;;;;;7.22;100.00;102107.16;4985350;28;20039;-82
2022/03/15 04:06:55;;;;;;;22.00;11.07;;;;;;;7.19;100.00;102100.09;4968969;28;20091;-82
2022/03/15 04:09:25;;;;;;;20.23;11.30;;;;;;;7.10;100.00;102099.97;4970265;28;20119;-83
2022/03/15 04:11:53;;;;;;;19.27;10.57;;;;;;;7.09;100.00;102108.72;4980865;28;20122;-82
2022/03/15 04:14:22;;;;;;;20.13;10.67;;;;;;;7.09;100.00;102113.97;4968310;28;20410;-82
2022/03/15 04:16:55;;;;;;;19.07;10.63;;;;;;;7.15;100.00;102114.06;4968633;28;20054;-83
2022/03/15 04:19:21;;;;;;;19.40;11.17;;;;;;;7.25;100.00;102107.22;4947625;28;20042;-82
2022/03/15 04:21:49;;;;;;;21.40;11.97;;;;;;;7.18;100.00;102098.34;4964225;28;20065;-82
2022/03/15 04:24:18;;;;;;;16.70;10.50;;;;;;;7.08;100.00;102099.06;4965078;28;20469;-81
2022/03/15 04:26:46;;;;;;;24.37;12.50;;;;;;;7.07;100.00;102099.91;4966421;28;20571;-81
2022/03/15 04:29:13;;;;;;;18.97;10.97;;;;;;;7.05;100.00;102101.59;4983733;28;20050;-82
2022/03/15 04:31:48;;;;;;;20.93;11.27;;;;;;;7.01;100.00;102099.81;4980740;28;20149;-82
2022/03/15 04:34:15;;;;;;;18.10;10.23;;;;;;;6.95;100.00;102110.19;4978697;28;20425;-82
2022/03/15 04:36:45;;;;;;;17.50;9.80;;;;;;;6.97;100.00;102108.47;4961904;28;20042;-82
2022/03/15 04:39:13;;;;;;;20.87;10.20;;;;;;;6.91;100.00;102104.03;4974010;28;20035;-83
2022/03/15 04:41:40;;;;;;;18.37;10.17;;;;;;;6.99;100.00;102112.03;4959025;28;20212;-82
2022/03/15 04:44:07;;;;;;;18.10;10.63;;;;;;;6.97;100.00;102114.63;4964463;28;20042;-83
2022/03/15 04:46:33;;;;;;;20.17;10.43;;;;;;;6.90;100.00;102112.75;4942400;28;20047;-81
2022/03/15 04:49:04;;;;;;;22.53;11.97;;;;;;;6.93;100.00;102111.91;4974524;28;20058;-80
2022/03/15 04:51:30;;;;;;;18.70;10.13;;;;;;;6.89;100.00;102116.22;4977784;28;20141;-82
2022/03/15 04:53:57;;;;;;;21.00;10.97;;;;;;;6.95;100.00;102115.44;4947608;28;20405;-82
2022/03/15 04:56:24;;;;;;;18.97;10.43;;;;;;;6.94;100.00;102119.81;4959745;28;20074;-81
2022/03/15 04:58:51;;;;;;;19.17;11.00;;;;;;;6.91;100.00;102118.91;4973212;28;20042;-81
2022/03/15 05:01:20;;;;;;;15.60;9.30;;;;;;;6.89;100.00;102123.22;4975921;28;20039;-81
2022/03/15 05:03:47;;;;;;;22.30;11.77;;;;;;;6.90;100.00;102131.16;4960188;28;20062;-81
2022/03/15 05:06:14;;;;;;;16.73;10.17;;;;;;;6.77;100.00;102127.41;4961579;28;20043;-81
2022/03/15 05:08:41;;;;;;;18.43;10.00;;;;;;;6.73;100.00;102125.59;4956800;28;20049;-82
2022/03/15 05:11:07;;;;;;;19.90;10.63;;;;;;;6.86;100.00;102131.06;4978024;28;20097;-81
2022/03/15 05:13:39;;;;;;;19.10;9.97;;;;;;;6.75;100.00;102133.50;4961137;28;20050;-82
2022/03/15 05:16:11;;;;;;;20.37;10.63;;;;;;;6.79;100.00;102132.69;4957857;28;20068;-82
2022/03/15 05:18:40;;;;;;;19.90;11.37;;;;;;;6.78;100.00;102123.91;4978912;28;20049;-82
2022/03/15 05:21:08;;;;;;;20.57;10.63;;;;;;;6.80;100.00;102115.16;4960269;28;20622;-81
2022/03/15 05:23:35;;;;;;;22.37;10.67;;;;;;;6.77;100.00;102118.63;4945298;28;20034;-81
2022/03/15 05:26:01;;;;;;;20.43;10.67;;;;;;;6.78;100.00;102121.28;4967763;28;20453;-82
2022/03/15 05:28:31;;;;;;;22.53;11.93;;;;;;;6.73;100.00;102122.09;4944257;28;20053;-82
2022/03/15 05:31:00;;;;;;;24.90;11.73;;;;;;;6.72;100.00;102128.16;4976739;28;20046;-82
2022/03/15 05:33:30;;;;;;;19.37;11.33;;;;;;;6.66;100.00;102115.81;4959922;28;20129;-81
2022/03/15 05:35:57;;;;;;;20.37;9.63;;;;;;;6.63;100.00;102115.75;4938898;28;20038;-81
2022/03/15 05:38:24;;;;;;;26.80;11.27;;;;;;;6.62;100.00;102106.09;4961524;28;20532;-82
2022/03/15 05:40:51;;;;;;;20.33;11.50;;;;;;;6.64;100.00;102114.00;4962788;28;20053;-81
2022/03/15 05:43:19;;;;;;;22.40;11.40;;;;;;;6.64;100.00;102112.28;4973797;28;20038;-81
2022/03/15 05:45:46;;;;;;;20.23;11.13;;;;;;;6.69;100.00;102113.25;4952511;28;20042;-80
2022/03/15 05:48:13;;;;;;;22.77;11.13;;;;;;;6.62;100.00;102115.72;4944525;28;20491;-82
2022/03/15 05:50:39;;;;;;;19.93;11.53;;;;;;;6.61;100.00;102106.06;4971237;28;20050;-82
2022/03/15 05:53:07;;;;;;;20.33;11.63;;;;;;;6.74;100.00;102113.34;4998164;28;20491;-81
2022/03/15 05:55:35;;;;;;;23.43;11.40;;;;;;;6.68;100.00;102111.47;4967186;28;20137;-82
2022/03/15 05:58:02;;;;;;;22.90;12.33;;;;;;;6.64;100.00;102101.78;4970703;28;20105;-82
2022/03/15 06:00:30;;;;;;;20.13;12.03;;;;;;;6.68;100.00;102102.72;4965270;28;20587;-82
2022/03/15 06:02:57;;;;;;;22.87;11.90;;;;;;;6.69;100.00;102102.72;4972778;28;20132;-82
2022/03/15 06:05:24;;;;;;;26.40;12.10;;;;;;;6.71;100.00;102105.38;4961791;28;20049;-81
2022/03/15 06:07:52;;;;;;;22.00;13.47;;;;;;;6.65;100.00;102102.66;4962129;28;20039;-82
2022/03/15 06:10:21;;;;;;;20.90;11.53;;;;;;;6.61;100.00;102099.09;4978284;28;20614;-82
2022/03/15 06:12:49;;;;;;;19.23;11.13;;;;;;;6.53;100.00;102095.44;4968195;28;20053;-81
2022/03/15 06:15:16;;;;;;;22.80;11.87;;;;;;;6.52;100.00;102101.53;4981123;28;20050;-81
2022/03/15 06:17:56;;;;;;;20.27;10.63;;;;;;;6.49;100.00;102101.50;4962210;28;20049;-82
2022/03/15 06:20:27;;;;;;;19.57;11.23;;;;;;;6.53;100.00;102100.69;4949298;28;20491;-83
2022/03/15 06:22:54;;;;;;;22.30;11.13;;;;;;;6.59;100.00;102106.06;4964165;28;20069;-81
2022/03/15 06:25:22;;;;;;;19.57;11.60;;;;;;;6.64;100.00;102101.78;4979154;28;20053;-82
2022/03/15 06:27:49;;;;;;;25.70;13.53;;;;;;;6.82;100.00;102102.97;4961873;28;20046;-81
2022/03/15 06:30:16;;;;;;;25.80;14.03;;;;;;;6.93;100.00;102110.19;4945707;28;20046;-83
2022/03/15 06:32:43;;;;;;;22.60;12.27;;;;;;;6.87;100.00;102110.06;4972502;28;20054;-82
2022/03/15 06:35:12;;;;;;;21.53;12.33;;;;;;;6.94;100.00;102109.31;4941744;28;20042;-81
2022/03/15 06:37:43;;;;;;;23.47;14.13;;;;;;;7.05;100.00;102107.75;4973873;28;20047;-81
2022/03/15 06:40:10;;;;;;;33.63;18.83;;;;;;;7.13;100.00;102120.13;4942102;28;20070;-82
2022/03/15 06:42:38;;;;;;;27.53;15.80;;;;;;;7.22;100.00;102118.53;4971073;28;20059;-81
2022/03/15 06:45:06;;;;;;;30.70;14.87;;;;;;;7.19;100.00;102115.00;4977401;28;20046;-80
2022/03/15 06:47:34;;;;;;;28.60;15.53;;;;;;;7.15;100.00;102124.59;4969332;28;20053;-82
2022/03/15 06:50:04;;;;;;;32.13;17.47;;;;;;;7.08;100.00;102127.97;4974823;28;20050;-81
2022/03/15 06:52:30;;;;;;;29.43;16.47;;;;;;;7.08;100.00;102121.81;4959737;28;20050;-82
2022/03/15 06:54:57;;;;;;;30.93;15.27;;;;;;;7.18;100.00;102132.50;4969117;28;20061;-82
2022/03/15 06:57:23;;;;;;;27.37;13.30;;;;;;;7.14;100.00;102127.16;4945768;28;20065;-81
2022/03/15 06:59:50;;;;;;;23.03;14.00;;;;;;;7.21;100.00;102129.03;4983606;28;20053;-82
2022/03/15 07:02:20;;;;;;;30.50;16.43;;;;;;;7.21;100.00;102129.03;4973764;28;20104;-82
2022/03/15 07:04:47;;;;;;;30.67;14.30;;;;;;;7.29;100.00;102128.31;4959734;28;20038;-81
2022/03/15 07:07:19;;;;;;;27.57;14.77;;;;;;;7.25;100.00;102131.75;4958284;28;20039;-81
2022/03/15 07:09:46;;;;;;;29.40;14.40;;;;;;;7.20;100.00;102122.91;4966348;28;20049;-83
2022/03/15 07:12:13;;;;;;;27.63;14.33;;;;;;;7.21;100.00;102134.28;4979581;28;21047;-82
2022/03/15 07:14:39;;;;;;;30.90;16.30;;;;;;;7.21;100.00;102127.28;4968078;28;20096;-83
2022/03/15 07:17:06;;;;;;;28.90;16.30;;;;;;;7.23;100.00;102135.19;4971754;28;20064;-84
2022/03/15 07:19:33;;;;;;;29.33;16.03;;;;;;;7.31;100.00;102131.88;4989156;28;20046;-83
2022/03/15 07:22:00;;;;;;;35.27;15.80;;;;;;;7.34;100.00;102137.16;4969419;28;20445;-84
2022/03/15 07:24:26;;;;;;;32.57;15.83;;;;;;;7.43;100.00;102135.53;4982723;28;20716;-82
2022/03/15 07:26:53;;;;;;;28.83;15.30;;;;;;;7.42;100.00;102145.19;4967963;28;20050;-82
2022/03/15 07:29:20;;;;;;;34.63;16.00;;;;;;;7.43;100.00;102138.19;4971287;28;20413;-83
2022/03/15 07:31:47;;;;;;;32.33;17.37;;;;;;;7.46;100.00;102140.84;5006085;23;20056;-79
2022/03/15 07:34:14;;;;;;;31.37;17.47;;;;;;;7.43;100.00;102146.94;4974952;28;20078;-78
2022/03/15 07:36:41;;;;;;;31.37;18.37;;;;;;;7.39;100.00;102142.47;4960943;28;20061;-76
2022/03/15 07:39:07;;;;;;;31.10;17.63;;;;;;;7.41;100.00;102139.91;4980712;28;20042;-78
2022/03/15 07:41:40;;;;;;;30.93;15.27;;;;;;;7.49;100.00;102140.91;4970357;28;20046;-77
2022/03/15 07:44:07;;;;;;;27.57;15.63;;;;;;;7.53;100.00;102137.44;4960503;28;20034;-78
2022/03/15 07:46:36;;;;;;;27.93;15.23;;;;;;;7.49;100.00;102140.91;4960927;28;20038;-78
2022/03/15 07:49:04;;;;;;;26.87;14.43;;;;;;;7.54;100.00;102139.22;4956875;28;20101;-78
2022/03/15 07:51:31;;;;;;;27.87;16.07;;;;;;;7.53;100.00;102140.09;4960657;28;20070;-77
2022/03/15 07:53:58;;;;;;;27.87;15.27;;;;;;;7.60;100.00;102128.81;4976978;28;20050;-78
2022/03/15 07:56:25;;;;;;;34.57;18.33;;;;;;;7.59;100.00;102132.28;4963141;28;20047;-77
2022/03/15 07:58:51;;;;;;;27.43;15.00;;;;;;;7.59;100.00;102134.94;4966445;28;20039;-78
2022/03/15 08:01:19;;;;;;;28.67;14.97;;;;;;;7.66;100.00;102141.19;4976124;28;20056;-79
2022/03/15 08:03:46;;;;;;;24.93;14.33;;;;;;;7.76;100.00;102143.06;4944411;28;20042;-79
2022/03/15 08:06:13;;;;;;;28.63;14.53;;;;;;;7.87;100.00;102150.25;4960275;28;20489;-77
2022/03/15 08:08:42;;;;;;;27.30;15.00;;;;;;;8.00;100.00;102146.06;4962341;28;20047;-78
2022/03/15 08:11:09;;;;;;;33.80;15.53;;;;;;;8.06;100.00;102150.50;4973092;28;20117;-78
2022/03/15 08:13:36;;;;;;;33.43;17.30;;;;;;;8.10;100.00;102147.06;4960137;28;20105;-77
2022/03/15 08:16:04;;;;;;;27.77;15.43;;;;;;;8.06;100.00;102153.13;4960226;28;20042;-78
2022/03/15 08:18:32;;;;;;;27.47;14.83;;;;;;;8.17;100.00;102147.16;4971800;28;20046;-77
2022/03/15 08:20:59;;;;;;;28.53;15.90;;;;;;;8.26;100.00;102143.78;4966151;28;20050;-77
2022/03/15 08:23:27;;;;;;;30.40;16.70;;;;;;;8.29;100.00;102142.91;4961834;28;20627;-78
2022/03/15 08:25:56;;;;;;;31.13;17.77;;;;;;;8.35;100.00;102138.66;4992745;28;20043;-76
2022/03/15 08:28:24;;;;;;;33.27;18.00;;;;;;;8.42;100.00;102140.50;4972890;28;20074;-77
2022/03/15 08:30:54;;;;;;;27.07;15.67;;;;;;;8.59;100.00;102142.44;4960434;28;20042;-76
2022/03/15 08:33:23;;;;;;;28.40;16.23;;;;;;;8.66;100.00;102138.97;4976284;28;20112;-75
2022/03/15 08:35:49;;;;;;;30.33;16.37;;;;;;;8.62;100.00;102145.09;5026467;23;20016;-78
2022/03/15 08:38:17;;;;;;;32.33;15.87;;;;;;;8.70;100.00;102140.81;5011323;28;20084;-78
2022/03/15 08:40:44;;;;;;;34.73;18.03;;;;;;;8.87;100.00;102133.94;4986989;28;20037;-78
2022/03/15 08:43:11;;;;;;;29.40;16.17;;;;;;;9.06;99.47;102118.31;4984878;28;20622;-78
2022/03/15 08:45:38;;;;;;;29.90;16.17;;;;;;;9.01;99.19;102120.91;4969153;28;20137;-77
2022/03/15 08:48:06;;;;;;;25.40;15.63;;;;;;;9.07;98.81;102118.31;4987954;28;20052;-78
2022/03/15 08:50:33;;;;;;;32.63;17.77;;;;;;;9.14;97.97;102122.78;4976310;28;20058;-77
2022/03/15 08:53:00;;;;;;;31.02;16.13;;;;;;;9.08;98.20;102113.94;4955292;28;20068;-77
2022/03/15 08:55:28;;;;;;;28.73;16.37;;;;;;;9.02;96.77;102112.13;4986610;28;21100;-78
2022/03/15 08:57:56;;;;;;;30.53;16.20;;;;;;;8.99;96.72;102106.81;4991053;28;20034;-78
2022/03/15 09:00:23;;;;;;;29.30;17.03;;;;;;;9.00;97.17;102109.50;4987528;28;20130;-78
2022/03/15 09:02:50;;;;;;;33.70;17.10;;;;;;;9.03;97.97;102119.19;4975115;28;20043;-78
2022/03/15 09:05:19;;;;;;;32.50;18.50;;;;;;;9.12;96.69;102111.34;4992271;28;20037;-79
2022/03/15 09:07:51;;;;;;;31.47;16.27;;;;;;;9.13;95.94;102110.47;4975177;28;20440;-79
2022/03/15 09:10:22;;;;;;;28.10;16.08;;;;;;;9.01;95.92;102108.63;5010209;28;20046;-78
2022/03/15 09:12:50;;;;;;;30.40;15.43;;;;;;;8.99;95.59;102109.47;4989912;28;20047;-80
2022/03/15 09:15:17;;;;;;;29.85;18.02;;;;;;;9.07;95.54;102109.53;4961483;28;20046;-79
2022/03/15 09:17:44;;;;;;;29.40;17.43;;;;;;;9.19;97.68;102109.66;4951612;28;20047;-78
2022/03/15 09:20:23;;;;;;;31.30;16.20;;;;;;;9.42;96.08;102112.47;4976762;28;20088;-79
2022/03/15 09:22:50;;;;;;;29.17;14.93;;;;;;;9.81;95.00;102114.47;4966451;28;20138;-79
2022/03/15 09:25:17;;;;;;;28.77;16.50;;;;;;;10.08;91.96;102111.09;4996518;28;20048;-80
2022/03/15 09:27:46;;;;;;;25.98;14.15;;;;;;;10.35;88.75;102095.41;4994050;28;20619;-79
2022/03/15 09:30:13;;;;;;;25.08;14.63;;;;;;;10.56;84.42;102105.16;4964220;28;20054;-77
2022/03/15 09:32:40;;;;;;;27.17;14.57;;;;;;;10.78;83.31;102108.75;4973826;28;20618;-80
2022/03/15 09:35:07;;;;;;;28.60;15.52;;;;;;;11.03;86.10;102099.06;4988271;28;20073;-80
2022/03/15 09:37:34;;;;;;;24.48;14.20;;;;;;;11.26;80.76;102091.13;4986567;28;20042;-79
2022/03/15 09:40:08;;;;;;;22.23;12.57;;;;;;;11.25;78.79;102097.28;4991147;28;20046;-79
2022/03/15 09:42:36;;;;;;;29.85;15.45;;;;;;;11.36;80.72;102097.31;4954560;28;20058;-77
2022/03/15 09:45:04;;;;;;;20.45;13.88;;;;;;;11.57;78.84;102091.97;4980334;28;20073;-77
2022/03/15 09:47:33;;;;;;;22.10;13.25;;;;;;;11.74;76.65;102087.53;4947481;28;20042;-78
2022/03/15 09:50:03;;;;;;;21.95;12.95;;;;;;;11.94;75.48;102094.56;4990250;28;20537;-78
2022/03/15 09:52:31;;;;;;;19.70;12.48;;;;;;;12.15;73.92;102089.19;4990647;28;20081;-78
2022/03/15 09:54:59;;;;;;;20.20;12.27;;;;;;;12.29;72.49;102086.50;4969986;28;20572;-78
2022/03/15 09:57:25;;;;;;;19.70;12.32;;;;;;;12.35;71.22;102076.72;4978562;28;20050;-78
2022/03/15 09:59:58;;;;;;;20.58;12.73;;;;;;;12.57;71.63;102079.28;4972474;28;20106;-78
2022/03/15 10:02:25;;;;;;;19.27;12.15;;;;;;;12.76;69.60;102075.59;5004703;28;20050;-78
2022/03/15 10:04:52;;;;;;;21.83;13.55;;;;;;;12.86;68.96;102074.66;4994091;28;20038;-78
2022/03/15 10:07:20;;;;;;;26.45;14.40;;;;;;;12.94;69.45;102066.63;4992848;28;20122;-78
2022/03/15 10:09:47;;;;;;;18.35;11.88;;;;;;;13.01;68.55;102062.16;4976791;28;20042;-77
2022/03/15 10:12:13;;;;;;;24.05;11.23;;;;;;;13.08;66.41;102054.13;4992222;28;20042;-78
2022/03/15 10:14:45;;;;;;;19.40;11.45;;;;;;;13.19;64.86;102059.34;4973407;28;20042;-78
2022/03/15 10:17:14;;;;;;;16.60;9.63;;;;;;;13.28;63.00;102053.97;4975706;28;20054;-78
2022/03/15 10:19:54;;;;;;;20.55;9.77;;;;;;;13.33;62.19;102056.59;4980722;28;20090;-77
2022/03/15 10:22:26;;;;;;;14.23;8.40;;;;;;;13.43;61.74;102060.91;4956087;28;20074;-78
2022/03/15 10:24:54;;;;;;;15.55;9.85;;;;;;;13.42;61.43;102060.03;4971402;28;21764;-77
2022/03/15 10:27:21;;;;;;;14.93;9.27;;;;;;;13.47;59.98;102057.34;4989843;28;20049;-77
2022/03/15 10:29:48;;;;;;;14.82;9.07;;;;;;;13.67;61.78;102050.03;4990846;28;20054;-77
2022/03/15 10:32:15;;;;;;;16.35;8.13;;;;;;;13.48;56.86;102061.75;4988912;28;20048;-77
2022/03/15 10:34:43;;;;;;;13.98;7.55;;;;;;;13.69;58.77;102056.22;4976964;28;20552;-77
2022/03/15 10:37:11;;;;;;;12.57;7.47;;;;;;;13.72;56.08;102052.66;4992076;28;20038;-77
2022/03/15 10:39:39;;;;;;;15.55;8.35;;;;;;;13.95;56.64;102045.28;4988265;28;20093;-78
2022/03/15 10:42:08;;;;;;;13.50;8.20;;;;;;;14.09;55.13;102051.31;4956324;28;20046;-78
2022/03/15 10:44:40;;;;;;;11.18;7.05;;;;;;;14.13;54.75;102048.63;4986777;28;20560;-77
2022/03/15 10:47:17;;;;;;;11.48;6.70;;;;;;;14.19;54.22;102048.53;4988540;28;20043;-77
2022/03/15 10:50:03;;;;;;;12.82;7.43;;;;;;;14.20;54.67;102043.19;4972802;28;20043;-78
2022/03/15 10:52:42;;;;;;;10.43;6.82;;;;;;;14.18;55.90;102039.69;4972384;28;20053;-78
2022/03/15 10:55:24;;;;;;;11.82;6.53;;;;;;;14.16;54.49;102033.50;4981836;28;20085;-77
2022/03/15 10:58:01;;;;;;;13.23;6.53;;;;;;;14.08;52.41;102030.94;4976323;28;20038;-78
2022/03/15 11:00:39;;;;;;;12.45;6.85;;;;;;;13.79;53.13;102033.09;4988792;28;20050;-78
2022/03/15 11:03:09;;;;;;;10.93;6.72;;;;;;;13.70;54.13;102031.41;4974693;28;20541;-78
2022/03/15 11:05:38;;;;;;;10.93;6.30;;;;;;;13.35;52.90;102022.94;4975040;28;20094;-78
2022/03/15 11:08:10;;;;;;;8.95;5.43;;;;;;;13.61;54.51;102022.66;4971893;28;20536;-78
2022/03/15 11:10:39;;;;;;;12.38;5.60;;;;;;;13.74;54.21;102011.03;4983898;28;20039;-77
2022/03/15 11:13:11;;;;;;;11.50;6.35;;;;;;;13.88;54.01;102010.88;4987624;28;20041;-77
2022/03/15 11:15:48;;;;;;;10.40;6.15;;;;;;;13.86;53.90;102002.88;4976738;28;20101;-78
2022/03/15 11:18:17;;;;;;;11.27;5.88;;;;;;;14.00;52.22;102011.56;4970851;28;20047;-77